Time;durP1;ratioP1;P1;durP2;ratioP2;P2;SDS_P1;SDS_P2;PMS_P1;PMS_P2;Temp;Humidity;BMP_temperature;BMP_pressure;BME280_temperature;BME280_humidity;BME280_pressure;Samples;Min_cycle;Max_cycle;Signal;HPM_P1;HPM_P2
2023/03/05 00:00:25;;;;;;;;;22.20;21.80;;;;;9.16;55.79;101783.53;2085877;28;46129;-68
2023/03/05 00:01:27;;;;;;;;;18.50;18.00;;;;;9.16;55.64;101780.88;2077788;28;46856;-66
2023/03/05 00:02:28;;;;;;;;;22.80;21.80;;;;;9.14;55.79;101783.50;2072064;28;46425;-66
2023/03/05 00:03:28;;;;;;;;;29.75;25.25;;;;;9.14;55.89;101781.72;2079580;28;46892;-66
2023/03/05 00:04:28;;;;;;;;;21.50;19.50;;;;;9.14;55.98;101781.72;2081502;28;46245;-66
2023/03/05 00:05:29;;;;;;;;;22.00;22.00;;;;;9.14;55.80;101772.91;2079714;28;46626;-67
2023/03/05 00:06:30;;;;;;;;;22.75;21.00;;;;;9.13;56.21;101784.38;2080504;28;45973;-67
2023/03/05 00:07:31;;;;;;;;;24.00;22.60;;;;;9.14;55.89;101783.50;2081595;28;46113;-67
2023/03/05 00:08:31;;;;;;;;;26.00;23.75;;;;;9.13;56.11;101785.25;2083771;28;46294;-67
2023/03/05 00:09:32;;;;;;;;;24.75;23.75;;;;;9.12;56.07;101787.91;2078709;28;46338;-67
2023/03/05 00:10:32;;;;;;;;;26.00;23.75;;;;;9.12;56.17;101785.28;2079862;28;46324;-67
2023/03/05 00:11:33;;;;;;;;;19.75;18.50;;;;;9.10;56.26;101782.63;2087522;28;46260;-66
2023/03/05 00:12:33;;;;;;;;;22.75;21.25;;;;;9.11;56.25;101781.75;2084113;28;46730;-67
2023/03/05 00:13:34;;;;;;;;;25.75;24.25;;;;;9.11;56.24;101779.09;2095472;28;46607;-67
2023/03/05 00:14:35;;;;;;;;;18.20;18.20;;;;;9.11;56.25;101779.09;2094559;28;46201;-66
2023/03/05 00:15:39;;;;;;;;;22.50;22.50;;;;;9.12;56.25;101777.31;2080955;28;46816;-65
2023/03/05 00:16:40;;;;;;;;;24.80;21.60;;;;;9.11;56.54;101771.16;2072565;28;46026;-66
2023/03/05 00:17:40;;;;;;;;;24.25;22.50;;;;;9.12;56.45;101774.69;2077611;28;45713;-65
2023/03/05 00:18:41;;;;;;;;;24.50;24.00;;;;;9.11;56.44;101768.50;2079810;28;45766;-67
2023/03/05 00:19:42;;;;;;;;;26.40;23.40;;;;;9.11;56.32;101773.78;2095644;28;45412;-66
2023/03/05 00:20:42;;;;;;;;;25.50;24.25;;;;;9.11;56.47;101764.97;2092583;28;46817;-65
2023/03/05 00:21:42;;;;;;;;;17.00;17.00;;;;;9.11;56.24;101770.25;2078917;28;46840;-66
2023/03/05 00:22:43;;;;;;;;;26.50;23.25;;;;;9.11;56.60;101770.25;2082388;28;46182;-65
2023/03/05 00:23:43;;;;;;;;;27.25;23.75;;;;;9.11;56.55;101770.25;2080372;28;45977;-67
2023/03/05 00:24:43;;;;;;;;;24.50;23.00;;;;;9.11;56.56;101767.63;2087402;28;46842;-66
2023/03/05 00:25:45;;;;;;;;;19.75;18.75;;;;;9.10;56.75;101771.16;2083130;28;46290;-65
2023/03/05 00:26:46;;;;;;;;;25.80;25.80;;;;;9.12;56.70;101764.09;2080267;28;45805;-65
2023/03/05 00:27:46;;;;;;;;;24.00;22.25;;;;;9.13;56.70;101772.03;2079179;28;46727;-66
2023/03/05 00:28:48;;;;;;;;;23.50;21.75;;;;;9.14;56.39;101763.19;2082153;28;46083;-66
2023/03/05 00:29:49;;;;;;;;;21.80;20.20;;;;;9.15;56.71;101769.41;2087921;28;46869;-66
2023/03/05 00:30:49;;;;;;;;;23.00;21.75;;;;;9.15;56.56;101766.75;2086182;28;46517;-65
2023/03/05 00:31:49;;;;;;;;;21.75;19.50;;;;;9.15;56.72;101764.13;2093863;28;46314;-66
2023/03/05 00:32:50;;;;;;;;;25.50;22.75;;;;;9.14;56.86;101775.56;2086342;28;45506;-66
2023/03/05 00:33:54;;;;;;;;;15.25;13.75;;;;;9.15;56.92;101766.75;2078592;28;47211;-66
2023/03/05 00:34:54;;;;;;;;;18.40;16.80;;;;;9.12;56.92;101775.56;2085003;28;45993;-66
2023/03/05 00:35:55;;;;;;;;;22.50;20.75;;;;;9.12;57.15;101770.25;2080389;28;45578;-66
2023/03/05 00:36:56;;;;;;;;;24.60;22.80;;;;;9.12;56.99;101772.03;2080617;28;46429;-65
2023/03/05 00:37:57;;;;;;;;;18.25;17.00;;;;;9.12;57.28;101774.69;2088131;28;48573;-68
2023/03/05 00:38:58;;;;;;;;;23.50;22.50;;;;;9.10;57.16;101774.69;2080022;28;45851;-67
2023/03/05 00:39:58;;;;;;;;;24.40;23.40;;;;;9.10;57.14;101765.84;2079723;28;47136;-66
2023/03/05 00:40:59;;;;;;;;;18.50;17.75;;;;;9.09;57.18;101772.91;2079979;28;46128;-66
2023/03/05 00:41:59;;;;;;;;;18.00;17.25;;;;;9.10;57.08;101774.69;2084678;28;46495;-67
2023/03/05 00:42:59;;;;;;;;;24.00;23.00;;;;;9.11;57.26;101771.16;2101077;28;46885;-66
2023/03/05 00:44:00;;;;;;;;;18.75;18.75;;;;;9.11;57.47;101773.78;2098629;28;45951;-66
2023/03/05 00:45:00;;;;;;;;;22.75;19.75;;;;;9.10;57.39;101774.69;2087607;28;46268;-67
2023/03/05 00:46:00;;;;;;;;;21.25;19.50;;;;;9.10;56.99;101768.50;2088270;28;47545;-66
2023/03/05 00:47:01;;;;;;;;;22.75;22.00;;;;;9.08;57.42;101765.84;2082727;28;46387;-66
2023/03/05 00:48:02;;;;;;;;;25.50;24.75;;;;;9.09;57.36;101769.38;2085465;28;45487;-67
2023/03/05 00:49:03;;;;;;;;;17.20;16.80;;;;;9.07;57.52;101768.50;2087820;28;46658;-66
2023/03/05 00:50:05;;;;;;;;;22.25;21.75;;;;;9.06;57.69;101764.97;2086616;28;46631;-67
2023/03/05 00:51:05;;;;;;;;;24.00;21.60;;;;;9.06;57.52;101758.81;2072159;28;45927;-66
2023/03/05 00:52:06;;;;;;;;;17.25;17.25;;;;;9.05;57.69;101763.22;2095554;28;45537;-68
2023/03/05 00:53:06;;;;;;;;;21.50;20.75;;;;;9.06;57.62;101761.44;2095056;28;45743;-66
2023/03/05 00:54:06;;;;;;;;;19.75;19.75;;;;;9.06;57.59;101758.81;2078988;28;46294;-66
2023/03/05 00:55:07;;;;;;;;;22.75;22.00;;;;;9.05;57.75;101755.28;2078145;28;46727;-67
2023/03/05 00:56:07;;;;;;;;;24.25;23.50;;;;;9.05;57.60;101757.91;2077086;28;46751;-67
2023/03/05 00:57:08;;;;;;;;;27.50;26.00;;;;;9.04;57.38;101756.16;2081248;28;46572;-68
2023/03/05 00:58:08;;;;;;;;;20.50;20.50;;;;;9.03;58.11;101754.38;2080418;28;46722;-65
2023/03/05 00:59:09;;;;;;;;;23.25;23.25;;;;;9.03;57.96;101757.03;2079333;28;45681;-67
2023/03/05 01:00:11;;;;;;;;;24.50;22.75;;;;;9.03;57.69;101749.09;2083553;28;46060;-66
2023/03/05 01:01:11;;;;;;;;;23.00;21.60;;;;;9.05;57.82;101754.38;2085666;28;45623;-67
2023/03/05 01:02:12;;;;;;;;;21.75;21.75;;;;;9.04;57.92;101758.81;2080946;28;46308;-66
2023/03/05 01:03:12;;;;;;;;;23.00;19.25;;;;;9.04;57.84;101752.63;2078391;28;46327;-65
2023/03/05 01:04:12;;;;;;;;;25.00;22.75;;;;;9.04;57.94;101755.28;2086747;28;46327;-66
2023/03/05 01:05:14;;;;;;;;;21.75;20.25;;;;;9.05;57.97;101749.09;2086907;28;46313;-67
2023/03/05 01:06:15;;;;;;;;;23.60;23.60;;;;;9.05;57.82;101749.97;2078612;28;46387;-66
2023/03/05 01:07:16;;;;;;;;;24.00;21.40;;;;;9.06;58.06;101754.38;2078329;28;46776;-67
2023/03/05 01:08:16;;;;;;;;;21.75;21.75;;;;;9.05;58.01;101749.97;2078983;28;46643;-66
2023/03/05 01:09:16;;;;;;;;;24.25;24.25;;;;;9.05;58.15;101747.31;2078867;28;46457;-66
2023/03/05 01:10:17;;;;;;;;;24.25;23.25;;;;;9.05;58.07;101747.31;2079353;28;45571;-66
2023/03/05 01:11:17;;;;;;;;;23.25;21.00;;;;;9.05;58.11;101742.03;2078790;28;46884;-66
2023/03/05 01:12:18;;;;;;;;;17.75;16.75;;;;;9.06;58.25;101742.91;2087222;28;46664;-66
2023/03/05 01:13:18;;;;;;;;;18.50;16.75;;;;;9.06;58.22;101745.56;2094769;28;46330;-66
2023/03/05 01:14:19;;;;;;;;;21.50;18.00;;;;;9.06;58.12;101748.22;2081855;28;46715;-65
2023/03/05 01:15:20;;;;;;;;;22.80;21.80;;;;;9.06;58.25;101738.50;2078994;28;46859;-65
2023/03/05 01:16:21;;;;;;;;;24.00;22.40;;;;;9.07;58.44;101745.56;2085600;28;46909;-66
2023/03/05 01:17:21;;;;;;;;;19.75;19.25;;;;;9.07;58.30;101745.56;2086779;28;46194;-67
2023/03/05 01:18:22;;;;;;;;;22.25;22.25;;;;;9.09;58.41;101748.19;2078825;28;46978;-66
2023/03/05 01:19:22;;;;;;;;;21.25;19.75;;;;;9.09;58.58;101743.78;2078994;28;47787;-66
2023/03/05 01:20:23;;;;;;;;;17.25;17.25;;;;;9.10;58.21;101748.19;2078895;28;46436;-65
2023/03/05 01:21:23;;;;;;;;;21.75;21.50;;;;;9.11;58.52;101735.84;2078754;28;46218;-66
2023/03/05 01:22:24;;;;;;;;;20.75;19.50;;;;;9.10;58.65;101742.91;2078601;28;46595;-66
2023/03/05 01:23:24;;;;;;;;;20.75;19.00;;;;;9.11;58.48;101739.38;2079169;28;46385;-67
2023/03/05 01:24:25;;;;;;;;;22.25;21.50;;;;;9.12;58.61;101746.44;2073991;28;46412;-67
2023/03/05 01:25:26;;;;;;;;;23.50;21.50;;;;;9.12;58.65;101735.84;2076237;28;45558;-66
2023/03/05 01:26:26;;;;;;;;;20.20;20.20;;;;;9.12;58.63;101738.47;2079113;28;45235;-66
2023/03/05 01:27:27;;;;;;;;;22.00;22.00;;;;;9.11;58.75;101735.84;2078376;28;46326;-66
2023/03/05 01:28:27;;;;;;;;;22.00;21.00;;;;;9.11;58.82;101739.38;2079415;28;46371;-67
2023/03/05 01:29:27;;;;;;;;;21.75;21.25;;;;;9.11;58.90;101735.84;2087000;28;46854;-66
2023/03/05 01:30:28;;;;;;;;;27.50;23.00;;;;;9.11;58.86;101730.53;2088866;28;46816;-67
2023/03/05 01:31:28;;;;;;;;;21.00;20.75;;;;;9.12;58.77;101732.31;2085726;28;45811;-66
2023/03/05 01:32:29;;;;;;;;;24.50;22.50;;;;;9.11;58.83;101725.25;2078984;28;46549;-66
2023/03/05 01:33:29;;;;;;;;;16.25;16.25;;;;;9.10;58.57;101729.66;2079232;28;46452;-65
2023/03/05 01:34:29;;;;;;;;;23.75;18.50;;;;;9.09;58.93;101725.25;2081833;28;46169;-65
2023/03/05 01:35:30;;;;;;;;;23.00;19.00;;;;;9.07;58.73;101724.38;2079899;28;45874;-65
2023/03/05 01:36:30;;;;;;;;;19.75;16.75;;;;;9.07;58.87;101726.13;2078777;28;47071;-67
2023/03/05 01:37:31;;;;;;;;;25.00;21.00;;;;;9.07;59.10;101727.03;2083726;28;46044;-65
2023/03/05 01:38:31;;;;;;;;;22.00;20.50;;;;;9.08;58.92;101719.97;2084676;28;46217;-66
2023/03/05 01:39:32;;;;;;;;;19.75;19.75;;;;;9.07;59.19;101715.53;2093603;28;45700;-66
2023/03/05 01:40:32;;;;;;;;;19.50;18.75;;;;;9.08;59.22;101717.31;2091979;28;45864;-66
2023/03/05 01:41:33;;;;;;;;;17.75;17.75;;;;;9.08;59.22;101714.66;2079230;28;46762;-66
2023/03/05 01:42:34;;;;;;;;;22.00;22.00;;;;;9.08;59.03;101714.66;2086474;28;47014;-66
2023/03/05 01:43:34;;;;;;;;;23.25;19.75;;;;;9.09;59.19;101706.72;2079111;28;47824;-65
2023/03/05 01:44:34;;;;;;;;;23.00;21.00;;;;;9.09;59.31;101708.47;2079061;28;46984;-65
2023/03/05 01:45:35;;;;;;;;;25.00;21.50;;;;;9.09;59.24;101706.72;2086566;28;46211;-66
2023/03/05 01:46:37;;;;;;;;;20.00;19.50;;;;;9.09;59.31;101712.00;2085648;28;45077;-65
2023/03/05 01:47:38;;;;;;;;;23.60;22.80;;;;;9.10;59.32;101704.94;2086372;28;47630;-66
2023/03/05 01:48:41;;;;;;;;;25.75;20.75;;;;;9.10;59.33;101699.66;2034897;28;1271136;-66
2023/03/05 01:49:41;;;;;;;;;25.60;23.20;;;;;9.11;59.32;101704.94;2079520;28;46465;-66
2023/03/05 01:50:42;;;;;;;;;26.00;26.00;;;;;9.09;59.24;101693.47;2079440;28;45937;-65
2023/03/05 01:52:04;;;;;;;;;23.50;21.75;;;;;9.09;59.29;101697.88;2079650;28;46635;-66
2023/03/05 01:53:06;;;;;;;;;25.60;24.20;;;;;9.07;59.35;101695.25;2079846;28;46430;-65
2023/03/05 01:54:10;;;;;;;;;29.80;27.80;;;;;9.08;59.60;101693.47;2078711;28;46704;-67
2023/03/05 01:55:14;;;;;;;;;22.00;20.60;;;;;9.07;59.60;101694.38;2086722;28;46427;-66
2023/03/05 01:56:15;;;;;;;;;27.20;23.80;;;;;9.06;59.58;101693.47;2083099;28;46545;-66
2023/03/05 01:57:20;;;;;;;;;20.80;20.80;;;;;9.05;59.64;101690.84;2072787;28;46571;-65
2023/03/05 01:58:21;;;;;;;;;25.80;23.00;;;;;9.05;59.71;101690.84;2091525;28;46494;-65
2023/03/05 01:59:23;;;;;;;;;23.75;23.75;;;;;9.04;59.52;101691.72;2097159;28;46504;-65
2023/03/05 02:00:28;;;;;;;;;24.80;23.40;;;;;9.05;59.82;101690.84;2085147;28;46899;-66
2023/03/05 02:01:39;;;;;;;;;19.00;19.00;;;;;9.04;59.60;101691.72;2082693;28;46656;-67
2023/03/05 02:02:46;;;;;;;;;28.80;25.00;;;;;9.04;59.77;101692.59;2075398;28;45634;-67
2023/03/05 02:03:47;;;;;;;;;18.60;18.60;;;;;9.03;59.88;101682.91;2082955;28;46300;-65
2023/03/05 02:05:08;;;;;;;;;19.00;18.75;;;;;9.04;60.01;101686.44;2087274;28;46232;-66
2023/03/05 02:06:08;;;;;;;;;24.20;22.00;;;;;9.04;59.77;101689.97;2090411;28;46525;-66
2023/03/05 02:07:10;;;;;;;;;25.50;24.25;;;;;9.04;59.84;101681.13;2085871;28;44940;-66
2023/03/05 02:08:14;;;;;;;;;24.80;23.40;;;;;9.04;59.73;101678.50;2080850;28;46835;-66
2023/03/05 02:09:14;;;;;;;;;24.20;23.60;;;;;9.04;59.83;101687.31;2082529;28;46452;-67
2023/03/05 02:10:27;;;;;;;;;27.75;24.00;;;;;9.04;59.92;101675.84;2075811;28;46195;-66
2023/03/05 02:11:28;;;;;;;;;22.00;22.00;;;;;9.04;59.96;101682.00;2074136;28;47013;-66
2023/03/05 02:12:28;;;;;;;;;26.75;25.75;;;;;9.02;59.81;101677.56;2086695;28;46379;-66
2023/03/05 02:13:34;;;;;;;;;25.50;22.25;;;;;9.02;60.14;101680.22;2092933;28;46347;-65
2023/03/05 02:14:35;;;;;;;;;24.20;22.40;;;;;9.01;60.30;101678.47;2080654;28;46802;-66
2023/03/05 02:15:37;;;;;;;;;23.75;23.25;;;;;9.01;60.14;101675.81;2078349;28;46590;-66
2023/03/05 02:16:38;;;;;;;;;24.80;24.40;;;;;9.01;60.17;101675.81;2079604;28;46593;-66
2023/03/05 02:17:38;;;;;;;;;18.50;18.00;;;;;9.00;60.17;101677.56;2080438;28;45908;-66
2023/03/05 02:18:39;;;;;;;;;23.75;21.75;;;;;9.00;60.42;101672.28;2072786;28;46205;-65
2023/03/05 02:19:48;;;;;;;;;26.00;22.75;;;;;9.01;60.20;101674.03;2076774;28;46602;-67
2023/03/05 02:21:00;;;;;;;;;26.80;24.40;;;;;9.01;60.45;101671.41;2078972;28;45888;-66
2023/03/05 02:22:01;;;;;;;;;27.80;25.40;;;;;9.02;60.40;101670.53;2071581;28;47855;-66
2023/03/05 02:23:01;;;;;;;;;25.00;25.00;;;;;9.03;60.44;101668.78;2077368;28;46748;-66
2023/03/05 02:24:01;;;;;;;;;27.25;26.00;;;;;9.02;60.30;101670.53;2078959;28;46619;-67
2023/03/05 02:25:15;;;;;;;;;23.50;23.25;;;;;9.01;60.54;101667.88;2081426;28;45922;-65
2023/03/05 02:26:17;;;;;;;;;28.80;26.40;;;;;9.02;60.42;101673.19;2080923;28;45955;-66
2023/03/05 02:27:22;;;;;;;;;25.60;22.20;;;;;9.02;60.48;101665.25;2078804;28;46973;-67
2023/03/05 02:28:31;;;;;;;;;24.80;24.20;;;;;9.02;60.50;101659.97;2080137;28;46608;-66
2023/03/05 02:29:36;;;;;;;;;25.40;25.00;;;;;9.02;60.64;101662.59;2094690;28;45795;-65
2023/03/05 02:30:37;;;;;;;;;24.00;23.20;;;;;9.02;60.45;101664.34;2093595;28;46630;-66
2023/03/05 02:31:37;;;;;;;;;24.60;22.80;;;;;9.02;60.52;101653.75;2078724;28;46724;-66
2023/03/05 02:32:38;;;;;;;;;28.75;26.25;;;;;9.02;60.73;101648.44;2078649;28;46699;-65
2023/03/05 02:33:38;;;;;;;;;31.25;25.75;;;;;9.02;60.76;101659.97;2083619;28;46828;-66
2023/03/05 02:34:39;;;;;;;;;24.25;24.25;;;;;9.01;60.50;101655.50;2085898;28;46209;-65
2023/03/05 02:35:39;;;;;;;;;28.75;23.50;;;;;9.00;60.61;101648.47;2084875;28;46522;-66
2023/03/05 02:36:39;;;;;;;;;25.25;25.00;;;;;8.99;60.67;101646.69;2095038;28;45798;-66
2023/03/05 02:37:40;;;;;;;;;32.00;28.00;;;;;9.01;60.59;101646.69;2095409;28;45531;-65
2023/03/05 02:38:41;;;;;;;;;29.75;28.75;;;;;9.01;60.69;101647.56;2080111;28;46918;-66
2023/03/05 02:39:41;;;;;;;;;27.80;26.40;;;;;9.02;60.80;101645.81;2079221;28;45714;-66
2023/03/05 02:40:42;;;;;;;;;15.25;15.25;;;;;9.01;60.84;101644.91;2079823;28;46495;-65
2023/03/05 02:41:42;;;;;;;;;27.25;25.25;;;;;9.01;60.75;101644.03;2079215;28;44912;-66
2023/03/05 02:42:43;;;;;;;;;25.75;24.25;;;;;9.02;60.62;101643.16;2094586;28;46572;-66
2023/03/05 02:43:43;;;;;;;;;34.00;29.75;;;;;9.02;60.70;101643.16;2094848;28;47513;-66
2023/03/05 02:44:43;;;;;;;;;29.75;26.25;;;;;9.02;60.87;101636.13;2079771;28;46383;-65
2023/03/05 02:45:44;;;;;;;;;18.00;17.50;;;;;9.02;60.76;101641.41;2080423;28;46840;-65
2023/03/05 02:46:44;;;;;;;;;27.75;25.75;;;;;9.03;60.76;101637.88;2080690;28;46931;-66
2023/03/05 02:47:44;;;;;;;;;24.25;22.50;;;;;9.04;61.04;101644.06;2080814;28;45605;-66
2023/03/05 02:48:45;;;;;;;;;28.00;24.75;;;;;9.04;60.90;101636.13;2076156;28;45895;-66
2023/03/05 02:49:45;;;;;;;;;24.00;24.00;;;;;9.04;60.78;101633.47;2072739;28;46230;-66
2023/03/05 02:50:46;;;;;;;;;31.25;27.25;;;;;9.04;60.90;101633.47;2077680;28;46710;-65
2023/03/05 02:51:47;;;;;;;;;26.20;24.00;;;;;9.04;60.71;101630.81;2080016;28;46394;-65
2023/03/05 02:52:47;;;;;;;;;30.00;25.00;;;;;9.03;60.94;101627.31;2096312;28;46551;-68
2023/03/05 02:53:50;;;;;;;;;28.00;26.75;;;;;9.04;60.84;101629.06;2096270;28;45587;-65
2023/03/05 02:54:51;;;;;;;;;26.20;23.40;;;;;9.04;60.86;101626.41;2080220;28;46928;-65
2023/03/05 02:55:52;;;;;;;;;33.40;31.80;;;;;9.03;60.99;101631.72;2079921;28;46866;-66
2023/03/05 02:56:52;;;;;;;;;25.00;25.00;;;;;9.03;60.80;101629.06;2079806;28;44990;-66
2023/03/05 02:57:52;;;;;;;;;25.50;23.25;;;;;9.01;60.99;101623.75;2088419;28;45233;-65
2023/03/05 02:58:53;;;;;;;;;24.00;23.50;;;;;9.00;61.01;101624.63;2087374;28;46673;-66
2023/03/05 02:59:53;;;;;;;;;27.00;25.75;;;;;8.98;60.99;101618.47;2080365;28;45967;-65
2023/03/05 03:00:54;;;;;;;;;17.00;15.50;;;;;8.99;61.18;101619.34;2089750;28;44973;-65
2023/03/05 03:01:54;;;;;;;;;29.25;25.75;;;;;9.00;61.25;101621.09;2088517;28;46827;-66
2023/03/05 03:02:54;;;;;;;;;29.75;28.75;;;;;8.99;61.01;101620.22;2071998;28;46395;-65
2023/03/05 03:03:55;;;;;;;;;26.75;26.75;;;;;9.00;61.16;101615.81;2079627;28;46176;-66
2023/03/05 03:04:55;;;;;;;;;24.75;22.25;;;;;8.99;61.09;101609.63;2082010;28;46233;-65
2023/03/05 03:05:56;;;;;;;;;26.50;25.25;;;;;9.01;60.96;101618.44;2079985;28;46153;-66
2023/03/05 03:06:56;;;;;;;;;25.25;24.75;;;;;9.01;61.33;101609.63;2082368;28;46365;-65
2023/03/05 03:07:56;;;;;;;;;28.25;27.00;;;;;9.01;61.30;101604.31;2080591;28;45606;-65
2023/03/05 03:08:57;;;;;;;;;27.75;26.00;;;;;9.01;61.43;101614.91;2088539;28;46395;-65
2023/03/05 03:09:57;;;;;;;;;24.00;22.75;;;;;9.01;61.36;101606.97;2086500;28;46503;-66
2023/03/05 03:11:06;;;;;;;;;30.50;28.50;;;;;9.01;61.41;101610.50;2080909;28;46422;-65
2023/03/05 03:12:08;;;;;;;;;29.20;26.60;;;;;9.01;61.23;101604.31;2082848;28;46309;-66
2023/03/05 03:13:08;;;;;;;;;29.80;26.60;;;;;9.00;61.21;101607.88;2079705;28;46775;-66
2023/03/05 03:14:08;;;;;;;;;24.00;23.75;;;;;8.99;61.19;101601.69;2080393;28;46686;-65
2023/03/05 03:15:11;;;;;;;;;28.75;28.25;;;;;9.00;61.19;101606.09;2081986;28;47155;-66
2023/03/05 03:16:14;;;;;;;;;28.60;23.20;;;;;8.99;61.23;101599.03;2080697;28;45916;-66
2023/03/05 03:17:16;;;;;;;;;34.00;30.00;;;;;8.99;61.32;101603.44;2080690;28;46473;-65
2023/03/05 03:18:16;;;;;;;;;28.60;24.80;;;;;8.98;61.29;101610.53;2081984;28;46487;-65
2023/03/05 03:19:17;;;;;;;;;26.00;25.75;;;;;8.99;61.33;101600.81;2086892;28;45517;-66
2023/03/05 03:20:18;;;;;;;;;32.25;26.50;;;;;8.98;61.22;101596.41;2087443;28;46613;-65
2023/03/05 03:21:20;;;;;;;;;28.40;27.40;;;;;8.97;61.38;101600.81;2077262;28;46664;-67
2023/03/05 03:22:21;;;;;;;;;29.20;25.20;;;;;8.97;61.50;101600.81;2079897;28;45781;-66
2023/03/05 03:23:21;;;;;;;;;23.50;22.50;;;;;8.97;61.14;101595.50;2074410;28;46175;-65
2023/03/05 03:24:21;;;;;;;;;29.75;25.50;;;;;8.96;61.59;101591.09;2075441;28;46230;-65
2023/03/05 03:25:22;;;;;;;;;22.50;22.25;;;;;8.95;61.42;101588.47;2087739;28;46596;-65
2023/03/05 03:26:22;;;;;;;;;23.25;23.25;;;;;8.92;61.18;101586.72;2079741;28;46227;-65
2023/03/05 03:27:23;;;;;;;;;23.50;21.25;;;;;8.93;61.64;101595.53;2079801;28;46806;-66
2023/03/05 03:28:24;;;;;;;;;24.75;24.50;;;;;8.93;61.64;101592.88;2081484;28;46483;-65
2023/03/05 03:29:24;;;;;;;;;24.25;24.25;;;;;8.92;61.73;101589.34;2080586;28;46920;-66
2023/03/05 03:30:24;;;;;;;;;25.75;24.00;;;;;8.92;61.52;101594.66;2080185;28;47009;-66
2023/03/05 03:31:24;;;;;;;;;26.00;26.00;;;;;8.93;61.68;101592.88;2078450;28;46411;-66
2023/03/05 03:32:25;;;;;;;;;26.75;24.75;;;;;8.91;61.60;101584.94;2078177;28;46193;-66
2023/03/05 03:33:25;;;;;;;;;24.75;23.00;;;;;8.90;61.56;101583.19;2081538;28;45491;-65
2023/03/05 03:34:26;;;;;;;;;26.50;22.25;;;;;8.90;61.75;101583.19;2081813;28;46589;-66
2023/03/05 03:35:26;;;;;;;;;20.25;19.75;;;;;8.90;61.83;101582.31;2078997;28;45571;-65
2023/03/05 03:36:26;;;;;;;;;30.25;26.50;;;;;8.91;61.50;101584.06;2070694;28;47609;-66
2023/03/05 03:37:28;;;;;;;;;25.25;24.50;;;;;8.90;61.78;101583.19;2070245;28;45625;-65
2023/03/05 03:38:28;;;;;;;;;24.80;22.60;;;;;8.90;61.92;101584.97;2079004;28;46613;-65
2023/03/05 03:39:28;;;;;;;;;24.00;24.00;;;;;8.90;61.66;101580.53;2078455;28;47319;-66
2023/03/05 03:40:29;;;;;;;;;26.75;26.25;;;;;8.90;61.89;101583.19;2078746;28;46796;-66
2023/03/05 03:41:29;;;;;;;;;24.00;22.75;;;;;8.90;62.01;101577.91;2062017;28;46153;-65
2023/03/05 03:42:30;;;;;;;;;28.00;25.50;;;;;8.90;61.84;101580.53;2054964;28;46867;-64
2023/03/05 03:43:30;;;;;;;;;29.25;25.25;;;;;8.89;61.99;101578.75;2077368;28;46266;-65
2023/03/05 03:44:31;;;;;;;;;24.50;21.25;;;;;8.90;61.93;101577.00;2078283;28;46781;-65
2023/03/05 03:45:31;;;;;;;;;19.25;16.50;;;;;8.91;61.97;101581.41;2085521;28;45480;-66
2023/03/05 03:46:32;;;;;;;;;33.00;28.75;;;;;8.91;62.02;101582.31;2082266;28;44927;-65
2023/03/05 03:47:32;;;;;;;;;26.00;24.50;;;;;8.90;61.82;101580.53;2082591;28;45534;-66
2023/03/05 03:48:33;;;;;;;;;26.75;24.25;;;;;8.89;61.67;101576.09;2078686;28;45398;-65
2023/03/05 03:49:33;;;;;;;;;26.25;25.00;;;;;8.90;61.94;101574.38;2081340;28;46474;-65
2023/03/05 03:50:33;;;;;;;;;24.50;23.50;;;;;8.88;62.01;101568.16;2083679;28;46784;-65
2023/03/05 03:51:34;;;;;;;;;25.50;23.00;;;;;8.86;61.92;101570.81;2072828;28;46457;-65
2023/03/05 03:52:34;;;;;;;;;24.75;22.00;;;;;8.87;62.15;101572.59;2070722;28;46819;-65
2023/03/05 03:53:35;;;;;;;;;22.25;20.50;;;;;8.86;61.94;101560.22;2078834;28;46078;-66
2023/03/05 03:54:36;;;;;;;;;28.40;26.00;;;;;8.87;62.18;101564.63;2078215;28;46489;-65
2023/03/05 03:55:37;;;;;;;;;23.75;23.00;;;;;8.85;62.04;101563.75;2078940;28;45810;-65
2023/03/05 03:56:37;;;;;;;;;25.50;24.75;;;;;8.86;61.94;101562.88;2077429;28;46372;-65
2023/03/05 03:57:37;;;;;;;;;25.00;22.75;;;;;8.85;61.91;101561.13;2078348;28;47014;-66
2023/03/05 03:58:38;;;;;;;;;23.75;22.00;;;;;8.84;62.18;101562.88;2079292;28;45873;-66
2023/03/05 03:59:38;;;;;;;;;20.25;17.00;;;;;8.84;62.10;101560.25;2078272;28;46667;-65
2023/03/05 04:00:39;;;;;;;;;30.00;26.75;;;;;8.82;62.08;101563.78;2079003;28;46307;-65
2023/03/05 04:01:39;;;;;;;;;23.00;23.00;;;;;8.81;62.24;101559.38;2074356;28;46247;-65
2023/03/05 04:02:40;;;;;;;;;22.75;21.00;;;;;8.80;62.29;101561.13;2073845;28;46227;-66
2023/03/05 04:03:40;;;;;;;;;28.50;24.00;;;;;8.80;62.12;101555.84;2077842;28;46239;-65
2023/03/05 04:04:40;;;;;;;;;26.25;24.25;;;;;8.80;62.17;101557.59;2062732;28;46221;-66
2023/03/05 04:05:41;;;;;;;;;25.50;24.00;;;;;8.79;62.00;101563.78;2062321;28;46172;-66
2023/03/05 04:06:41;;;;;;;;;25.00;24.25;;;;;8.78;62.33;101562.03;2078332;28;46374;-66
2023/03/05 04:07:42;;;;;;;;;26.50;25.25;;;;;8.78;62.14;101562.91;2079557;28;45881;-66
2023/03/05 04:08:42;;;;;;;;;22.25;22.25;;;;;8.78;62.25;101552.31;2078390;28;46748;-66
2023/03/05 04:09:42;;;;;;;;;21.00;20.00;;;;;8.78;62.36;101557.63;2079075;28;46879;-65
2023/03/05 04:10:43;;;;;;;;;24.50;24.00;;;;;8.78;62.41;101559.38;2077845;28;45545;-66
2023/03/05 04:11:43;;;;;;;;;24.00;23.00;;;;;8.77;62.33;101558.50;2074042;28;46391;-65
2023/03/05 04:12:45;;;;;;;;;24.25;22.75;;;;;8.77;62.30;101561.16;2076965;28;46080;-65
2023/03/05 04:13:45;;;;;;;;;27.60;23.60;;;;;8.77;62.35;101555.84;2080493;28;45169;-65
2023/03/05 04:14:47;;;;;;;;;24.00;20.00;;;;;8.78;62.53;101556.72;2078870;28;46248;-65
2023/03/05 04:15:49;;;;;;;;;30.00;28.00;;;;;8.77;62.22;101554.97;2078297;28;46573;-66
2023/03/05 04:16:49;;;;;;;;;31.80;25.80;;;;;8.78;62.33;101554.09;2079238;28;46562;-65
2023/03/05 04:17:49;;;;;;;;;24.50;22.25;;;;;8.77;62.23;101552.31;2085819;28;46192;-66
2023/03/05 04:18:50;;;;;;;;;21.75;21.75;;;;;8.77;62.28;101554.97;2078734;28;47098;-65
2023/03/05 04:19:50;;;;;;;;;30.75;30.25;;;;;8.77;62.63;101549.69;2079424;28;46690;-65
2023/03/05 04:20:50;;;;;;;;;26.50;23.75;;;;;8.77;62.54;101550.56;2092415;28;46453;-65
2023/03/05 04:21:51;;;;;;;;;27.25;26.75;;;;;8.79;62.44;101553.19;2095107;28;46261;-65
2023/03/05 04:22:51;;;;;;;;;22.00;21.25;;;;;8.79;62.74;101553.19;2095294;28;46779;-65
2023/03/05 04:23:51;;;;;;;;;32.25;26.50;;;;;8.78;62.08;101554.97;2095484;28;46521;-67
2023/03/05 04:24:52;;;;;;;;;28.75;27.75;;;;;8.78;62.44;101547.03;2087976;28;45702;-65
2023/03/05 04:25:52;;;;;;;;;25.50;23.75;;;;;8.77;62.62;101555.84;2093409;28;45652;-66
2023/03/05 04:26:53;;;;;;;;;24.00;24.00;;;;;8.78;62.66;101552.31;2094191;28;46792;-66
2023/03/05 04:27:53;;;;;;;;;24.00;22.25;;;;;8.78;62.44;101549.69;2087083;28;46383;-65
2023/03/05 04:28:53;;;;;;;;;26.75;24.00;;;;;8.78;62.46;101546.16;2086773;28;46825;-67
2023/03/05 04:29:53;;;;;;;;;19.25;16.75;;;;;8.77;62.86;101547.91;2095026;28;46799;-65
2023/03/05 04:30:54;;;;;;;;;23.25;22.50;;;;;8.77;62.38;101544.38;2092962;28;46430;-65
2023/03/05 04:31:54;;;;;;;;;18.50;16.00;;;;;8.78;62.73;101551.44;2095014;28;46654;-66
2023/03/05 04:32:57;;;;;;;;;23.00;21.00;;;;;8.78;62.57;101552.31;2095622;28;45192;-65
2023/03/05 04:33:59;;;;;;;;;24.00;22.60;;;;;8.80;62.57;101554.97;2095165;28;46407;-65
2023/03/05 04:34:59;;;;;;;;;24.80;23.00;;;;;8.79;62.61;101543.50;2100870;28;45930;-66
2023/03/05 04:35:59;;;;;;;;;28.75;23.50;;;;;8.80;62.46;101545.25;2095812;28;45973;-66
2023/03/05 04:37:00;;;;;;;;;26.00;24.25;;;;;8.81;62.48;101540.84;2095151;28;46637;-66
2023/03/05 04:38:00;;;;;;;;;24.25;23.75;;;;;8.80;62.50;101534.66;2087108;28;45673;-66
2023/03/05 04:39:00;;;;;;;;;8.50;7.00;;;;;8.81;62.42;101540.84;2086623;28;46845;-66
2023/03/05 04:40:01;;;;;;;;;25.75;22.75;;;;;8.81;62.52;101543.50;2095255;28;46662;-65
2023/03/05 04:41:01;;;;;;;;;23.75;21.50;;;;;8.82;62.45;101542.59;2095079;28;46933;-66